Time;durP1;ratioP1;P1;durP2;ratioP2;P2;SDS_P1;SDS_P2;PMS_P1;PMS_P2;Temp;Humidity;BMP_temperature;BMP_pressure;BME280_temperature;BME280_humidity;BME280_pressure;Samples;Min_cycle;Max_cycle;Signal;HPM_P1;HPM_P2
2023/03/01 00:01:29;;;;;;;;;;;;;;;-0.76;71.02;99089.13;7394611;19;19931;-73
2023/03/01 00:03:56;;;;;;;;;;;;;;;-0.68;71.60;99103.47;7391483;19;19919;-73
2023/03/01 00:06:23;;;;;;;;;;;;;;;-0.61;71.37;99098.00;7395033;19;20022;-73
2023/03/01 00:08:50;;;;;;;;;;;;;;;-0.59;70.65;99094.41;7394240;19;20379;-73
2023/03/01 00:11:26;;;;;;;;;;;;;;;-0.58;70.44;99095.25;7392636;19;19930;-73
2023/03/01 00:13:54;;;;;;;;;;;;;;;-0.61;70.69;99091.03;7390678;19;20296;-73
2023/03/01 00:16:24;;;;;;;;;;;;;;;-0.65;70.75;99097.28;7394122;19;19911;-73
2023/03/01 00:18:50;;;;;;;;;;;;;;;-0.67;70.64;99094.75;7395265;19;20540;-73
2023/03/01 00:21:17;;;;;;;;;;;;;;;-0.68;70.65;99092.25;7393433;19;19914;-73
2023/03/01 00:23:44;;;;;;;;;;;;;;;-0.68;70.88;99100.88;7393018;19;19922;-73
2023/03/01 00:26:11;;;;;;;;;;;;;;;-0.70;70.90;99091.47;7391554;19;19926;-72
2023/03/01 00:28:39;;;;;;;;;;;;;;;-0.73;71.25;99096.78;7394742;19;19923;-73
2023/03/01 00:31:07;;;;;;;;;;;;;;;-0.75;71.27;99093.41;7386744;19;19935;-73
2023/03/01 00:33:34;;;;;;;;;;;;;;;-0.79;71.14;99099.63;7391580;19;19919;-73
2023/03/01 00:36:00;;;;;;;;;;;;;;;-0.77;71.34;99098.66;7387891;19;20530;-73
2023/03/01 00:38:27;;;;;;;;;;;;;;;-0.73;71.25;99091.59;7390087;19;19922;-73
2023/03/01 00:40:54;;;;;;;;;;;;;;;-0.70;71.46;99099.25;7392059;19;19930;-73
2023/03/01 00:43:20;;;;;;;;;;;;;;;-0.76;71.27;99091.72;7393090;19;20347;-73
2023/03/01 00:45:47;;;;;;;;;;;;;;;-0.75;71.43;99081.25;7389812;19;19926;-73
2023/03/01 00:48:13;;;;;;;;;;;;;;;-0.78;71.38;99088.34;7388847;19;20130;-73
2023/03/01 00:50:40;;;;;;;;;;;;;;;-0.79;72.02;99084.06;7393983;19;19922;-73
2023/03/01 00:53:07;;;;;;;;;;;;;;;-0.76;71.81;99084.78;7387045;19;19922;-73
2023/03/01 00:55:33;;;;;;;;;;;;;;;-0.77;71.26;99085.66;7393295;19;19926;-73
2023/03/01 00:58:00;;;;;;;;;;;;;;;-0.74;71.52;99090.75;7391786;19;19922;-73
2023/03/01 01:00:27;;;;;;;;;;;;;;;-0.71;71.43;99085.41;7391875;19;19914;-73
2023/03/01 01:02:54;;;;;;;;;;;;;;;-0.75;70.93;99081.25;7390642;19;19925;-73
2023/03/01 01:05:21;;;;;;;;;;;;;;;-0.76;71.23;99078.75;7391412;19;19930;-73
2023/03/01 01:07:48;;;;;;;;;;;;;;;-0.73;71.08;99087.25;7392374;19;20275;-73
2023/03/01 01:10:20;;;;;;;;;;;;;;;-0.75;70.96;99088.22;7389620;19;20263;-73
2023/03/01 01:12:47;;;;;;;;;;;;;;;-0.75;70.81;99091.66;7392013;19;19982;-73
2023/03/01 01:15:16;;;;;;;;;;;;;;;-0.86;71.06;99085.25;7389720;19;19926;-73
2023/03/01 01:17:42;;;;;;;;;;;;;;;-0.91;70.66;99093.22;7394050;19;20364;-73
2023/03/01 01:20:09;;;;;;;;;;;;;;;-1.00;71.18;99078.91;7387555;19;19919;-73
2023/03/01 01:22:36;;;;;;;;;;;;;;;-1.03;71.11;99084.19;7393858;19;19929;-74
2023/03/01 01:25:03;;;;;;;;;;;;;;;-1.08;71.41;99077.53;7397470;19;19919;-73
2023/03/01 01:27:29;;;;;;;;;;;;;;;-1.03;71.60;99068.63;7398858;19;19926;-73
2023/03/01 01:29:56;;;;;;;;;;;;;;;-1.04;71.62;99066.09;7397970;19;19926;-73
2023/03/01 01:32:22;;;;;;;;;;;;;;;-1.12;71.89;99061.25;7399375;19;20374;-73
2023/03/01 01:34:52;;;;;;;;;;;;;;;-1.08;71.97;99061.94;7399831;19;19925;-73
2023/03/01 01:37:18;;;;;;;;;;;;;;;-1.13;72.21;99056.97;7392480;19;19922;-73
2023/03/01 01:39:45;;;;;;;;;;;;;;;-1.09;72.52;99050.72;7395870;19;19923;-73
2023/03/01 01:42:15;;;;;;;;;;;;;;;-1.13;72.89;99046.59;7396267;19;19918;-73
2023/03/01 01:44:42;;;;;;;;;;;;;;;-1.02;72.98;99044.34;7400532;19;20567;-73
2023/03/01 01:47:16;;;;;;;;;;;;;;;-1.00;73.14;99044.28;7397239;19;20263;-73
2023/03/01 01:49:46;;;;;;;;;;;;;;;-0.92;73.33;99043.03;7399536;19;19914;-73
2023/03/01 01:52:22;;;;;;;;;;;;;;;-0.85;72.92;99037.56;7392468;19;19919;-73
2023/03/01 01:54:48;;;;;;;;;;;;;;;-0.81;72.46;99033.94;7396564;19;19914;-74
2023/03/01 01:57:16;;;;;;;;;;;;;;;-0.77;72.28;99033.72;7395827;19;19919;-73
2023/03/01 01:59:43;;;;;;;;;;;;;;;-0.70;71.99;99042.09;7395981;19;19925;-73
2023/03/01 02:02:10;;;;;;;;;;;;;;;-0.64;71.91;99041.81;7392869;19;19922;-73
2023/03/01 02:04:36;;;;;;;;;;;;;;;-0.61;71.60;99038.22;7399287;19;19915;-73
2023/03/01 02:07:16;;;;;;;;;;;;;;;-0.57;71.79;99032.81;7396184;19;19915;-74
2023/03/01 02:09:46;;;;;;;;;;;;;;;-0.59;71.76;99028.59;7395044;19;19926;-73
2023/03/01 02:12:14;;;;;;;;;;;;;;;-0.43;72.33;99023.56;7389220;19;19918;-73
2023/03/01 02:14:40;;;;;;;;;;;;;;;-0.36;72.23;99024.97;7397023;19;19932;-73
2023/03/01 02:17:07;;;;;;;;;;;;;;;-0.33;71.67;99023.06;7394786;19;20351;-74
2023/03/01 02:19:52;;;;;;;;;;;;;;;-0.27;71.56;99014.94;7397793;19;20646;-73
2023/03/01 02:22:23;;;;;;;;;;;;;;;-0.24;71.39;99003.56;7395181;19;20296;-73
2023/03/01 02:25:04;;;;;;;;;;;;;;;-0.21;71.13;99008.66;7398770;19;20285;-73
2023/03/01 02:27:42;;;;;;;;;;;;;;;-0.16;71.08;99006.63;7391945;19;19978;-73
2023/03/01 02:30:12;;;;;;;;;;;;;;;-0.11;71.10;98994.25;7393008;19;19909;-73
2023/03/01 02:32:41;;;;;;;;;;;;;;;-0.08;71.07;98998.47;7392027;19;19923;-73
2023/03/01 02:35:09;;;;;;;;;;;;;;;-0.01;70.79;99002.47;7391355;19;19982;-73
2023/03/01 02:37:35;;;;;;;;;;;;;;;0.03;70.47;98995.34;7394439;19;19923;-73
2023/03/01 02:40:04;;;;;;;;;;;;;;;-0.08;69.67;98986.34;7392693;19;19946;-73
2023/03/01 02:42:31;;;;;;;;;;;;;;;0.01;69.52;98989.41;7393094;19;19918;-73
2023/03/01 02:44:58;;;;;;;;;;;;;;;0.02;69.93;98983.28;7392381;19;19942;-73
2023/03/01 02:47:25;;;;;;;;;;;;;;;0.05;69.81;98981.34;7392259;19;19926;-73
2023/03/01 02:49:51;;;;;;;;;;;;;;;-0.08;69.65;98982.88;7395352;19;19929;-73
2023/03/01 02:52:21;;;;;;;;;;;;;;;-0.02;69.79;98985.19;7390344;19;19918;-74
2023/03/01 02:54:47;;;;;;;;;;;;;;;0.01;69.90;98977.25;7395927;19;19926;-73
2023/03/01 02:57:14;;;;;;;;;;;;;;;0.03;69.96;98970.22;7390140;19;19950;-73
2023/03/01 02:59:42;;;;;;;;;;;;;;;0.03;69.99;98972.81;7392283;19;19919;-74
2023/03/01 03:02:20;;;;;;;;;;;;;;;0.01;69.65;98973.81;7387243;19;19928;-73
2023/03/01 03:04:46;;;;;;;;;;;;;;;0.03;70.10;98974.53;7394159;19;19998;-73
2023/03/01 03:07:13;;;;;;;;;;;;;;;0.10;69.76;98960.31;7389258;19;20478;-73
2023/03/01 03:09:40;;;;;;;;;;;;;;;0.09;69.60;98964.69;7391515;19;20359;-73
2023/03/01 03:12:07;;;;;;;;;;;;;;;0.08;69.52;98957.81;7390157;19;19918;-73
2023/03/01 03:14:34;;;;;;;;;;;;;;;0.13;70.00;98954.97;7392827;19;19924;-73
2023/03/01 03:17:06;;;;;;;;;;;;;;;0.14;69.83;98962.72;7388409;19;19911;-73
2023/03/01 03:19:32;;;;;;;;;;;;;;;0.12;69.93;98955.91;7392759;19;20006;-73
2023/03/01 03:21:59;;;;;;;;;;;;;;;0.13;69.45;98947.16;7394629;19;19922;-73
2023/03/01 03:24:27;;;;;;;;;;;;;;;0.12;69.57;98953.28;7394877;19;19937;-73
2023/03/01 03:26:53;;;;;;;;;;;;;;;0.17;69.69;98949.53;7395041;19;20014;-73
2023/03/01 03:29:20;;;;;;;;;;;;;;;0.22;69.83;98954.53;7393131;19;19915;-73
2023/03/01 03:31:46;;;;;;;;;;;;;;;0.23;69.68;98956.19;7393124;19;19914;-74
2023/03/01 03:34:17;;;;;;;;;;;;;;;0.27;69.79;98957.75;7389202;19;20267;-73
2023/03/01 03:36:44;;;;;;;;;;;;;;;0.26;69.53;98952.59;7391394;19;19937;-73
2023/03/01 03:39:11;;;;;;;;;;;;;;;0.29;69.87;98949.84;7389962;19;19933;-73
2023/03/01 03:41:37;;;;;;;;;;;;;;;0.29;69.89;98949.84;7393398;19;20336;-74
2023/03/01 03:44:04;;;;;;;;;;;;;;;0.28;69.87;98949.00;7388213;19;19922;-73
2023/03/01 03:46:30;;;;;;;;;;;;;;;0.33;70.00;98951.38;7392477;19;19927;-73
2023/03/01 03:48:58;;;;;;;;;;;;;;;0.32;69.53;98950.53;7395235;19;19918;-73
2023/03/01 03:51:24;;;;;;;;;;;;;;;0.22;69.75;98941.50;7389985;19;19918;-73
2023/03/01 03:53:51;;;;;;;;;;;;;;;0.10;70.09;98945.56;7387866;19;19922;-73
2023/03/01 03:56:17;;;;;;;;;;;;;;;0.16;70.40;98939.22;7387142;19;19922;-73
2023/03/01 03:58:44;;;;;;;;;;;;;;;0.10;69.49;98940.34;7394226;19;19922;-74
2023/03/01 04:01:11;;;;;;;;;;;;;;;0.11;69.85;98929.03;7385853;19;20565;-73
2023/03/01 04:03:37;;;;;;;;;;;;;;;0.15;70.11;98934.91;7389499;19;19918;-73
2023/03/01 04:06:05;;;;;;;;;;;;;;;0.19;70.21;98933.88;7387249;19;20411;-73
2023/03/01 04:08:32;;;;;;;;;;;;;;;0.39;69.80;98930.25;7389889;19;19922;-73
2023/03/01 04:13:47;;;;;;;;;;;;;;;0.44;69.29;98923.88;7388161;19;19922;-73
2023/03/01 04:16:14;;;;;;;;;;;;;;;0.48;69.57;98924.56;7385970;19;19915;-73
2023/03/01 04:18:40;;;;;;;;;;;;;;;0.50;69.28;98924.47;7393299;19;19978;-73
2023/03/01 04:21:07;;;;;;;;;;;;;;;0.49;69.21;98923.66;7387271;19;19942;-73
2023/03/01 04:23:34;;;;;;;;;;;;;;;0.53;69.36;98919.97;7392049;19;19934;-73
2023/03/01 04:26:01;;;;;;;;;;;;;;;0.47;68.83;98924.66;7388824;19;19914;-73
2023/03/01 04:28:29;;;;;;;;;;;;;;;0.36;68.55;98917.38;7387747;19;20112;-73
2023/03/01 04:30:56;;;;;;;;;;;;;;;0.40;68.64;98917.16;7388620;19;19910;-73
2023/03/01 04:33:23;;;;;;;;;;;;;;;0.39;68.66;98912.03;7388167;19;20274;-73
2023/03/01 04:35:50;;;;;;;;;;;;;;;0.40;68.88;98917.16;7392265;19;20351;-73
2023/03/01 04:38:17;;;;;;;;;;;;;;;0.39;68.85;98914.63;7388522;19;19922;-73
2023/03/01 04:40:44;;;;;;;;;;;;;;;0.46;69.36;98915.16;7393358;19;19933;-73
2023/03/01 04:43:11;;;;;;;;;;;;;;;0.43;68.60;98918.75;7385498;19;20015;-73
2023/03/01 04:45:37;;;;;;;;;;;;;;;0.41;68.73;98921.44;7387217;19;20287;-73
2023/03/01 04:48:04;;;;;;;;;;;;;;;0.31;68.61;98925.41;7390551;19;19918;-73
2023/03/01 04:50:31;;;;;;;;;;;;;;;0.28;69.14;98932.56;7392160;19;20357;-73
2023/03/01 04:53:00;;;;;;;;;;;;;;;0.28;69.20;98927.34;7389482;19;19915;-73
2023/03/01 04:55:27;;;;;;;;;;;;;;;0.38;68.98;98918.16;7389929;19;20001;-73
2023/03/01 04:57:54;;;;;;;;;;;;;;;0.37;69.05;98922.53;7391348;19;20602;-73
2023/03/01 05:00:21;;;;;;;;;;;;;;;0.36;68.99;98920.81;7385206;19;19918;-73
2023/03/01 05:02:54;;;;;;;;;;;;;;;0.29;68.81;98923.81;7390696;19;19907;-73
2023/03/01 05:05:25;;;;;;;;;;;;;;;0.28;69.33;98920.38;7386624;19;19918;-73
2023/03/01 05:07:52;;;;;;;;;;;;;;;0.25;69.23;98923.13;7390808;19;19922;-73
2023/03/01 05:10:19;;;;;;;;;;;;;;;0.25;69.38;98920.53;7389852;19;19918;-73
2023/03/01 05:12:46;;;;;;;;;;;;;;;0.27;69.29;98921.31;7388900;19;19938;-73
2023/03/01 05:15:13;;;;;;;;;;;;;;;0.36;69.43;98918.22;7388526;19;19933;-73
2023/03/01 05:17:39;;;;;;;;;;;;;;;0.34;69.28;98912.28;7393191;19;19938;-73
2023/03/01 05:20:08;;;;;;;;;;;;;;;0.26;69.65;98918.78;7391200;19;19921;-73
2023/03/01 05:22:35;;;;;;;;;;;;;;;0.31;69.67;98907.19;7392787;19;19914;-73
2023/03/01 05:25:02;;;;;;;;;;;;;;;0.32;69.17;98903.69;7394069;19;19942;-73
2023/03/01 05:27:29;;;;;;;;;;;;;;;0.27;69.17;98910.91;7390499;19;19930;-73
2023/03/01 05:29:56;;;;;;;;;;;;;;;0.36;69.24;98907.81;7389479;19;19986;-73
2023/03/01 05:32:22;;;;;;;;;;;;;;;0.39;69.29;98906.81;7385625;19;19932;-73
2023/03/01 05:34:49;;;;;;;;;;;;;;;0.38;68.85;98910.34;7391486;19;19939;-73
2023/03/01 05:37:15;;;;;;;;;;;;;;;0.38;69.15;98908.59;7387551;19;19935;-73
2023/03/01 05:39:42;;;;;;;;;;;;;;;0.32;69.10;98908.06;7393468;19;19970;-73
2023/03/01 05:42:10;;;;;;;;;;;;;;;0.31;68.98;98909.81;7386548;19;19970;-73
2023/03/01 05:44:37;;;;;;;;;;;;;;;0.32;68.96;98906.31;7392540;19;20260;-73
2023/03/01 05:47:03;;;;;;;;;;;;;;;0.31;69.27;98904.59;7393250;19;19923;-73
2023/03/01 05:49:31;;;;;;;;;;;;;;;0.31;69.27;98909.81;7389071;19;19914;-73
2023/03/01 05:51:58;;;;;;;;;;;;;;;0.34;68.95;98901.00;7392376;19;19934;-73
2023/03/01 05:54:24;;;;;;;;;;;;;;;0.24;68.89;98911.06;7390209;19;19919;-73
2023/03/01 05:56:51;;;;;;;;;;;;;;;0.23;68.83;98904.16;7390620;19;19919;-73
2023/03/01 05:59:18;;;;;;;;;;;;;;;0.23;69.00;98898.94;7388356;19;19926;-73
2023/03/01 06:01:44;;;;;;;;;;;;;;;0.31;68.99;98898.56;7391515;19;19938;-73
2023/03/01 06:04:11;;;;;;;;;;;;;;;0.28;68.90;98904.75;7387701;19;19942;-73
2023/03/01 06:06:37;;;;;;;;;;;;;;;0.29;69.04;98898.66;7389815;19;19918;-73
2023/03/01 06:09:06;;;;;;;;;;;;;;;0.29;68.91;98900.41;7397896;19;19920;-73
2023/03/01 06:11:34;;;;;;;;;;;;;;;0.18;68.85;98906.16;7397639;19;19915;-73
2023/03/01 06:14:00;;;;;;;;;;;;;;;0.12;69.46;98903.88;7396181;19;19925;-73
2023/03/01 06:16:27;;;;;;;;;;;;;;;0.05;69.28;98903.31;7390605;19;20278;-73
2023/03/01 06:18:54;;;;;;;;;;;;;;;0.03;69.42;98909.50;7395457;19;20018;-73
2023/03/01 06:21:21;;;;;;;;;;;;;;;-0.10;69.83;98901.50;7390583;19;20564;-73
2023/03/01 06:23:47;;;;;;;;;;;;;;;-0.20;70.05;98895.06;7392578;19;20259;-74
2023/03/01 06:26:14;;;;;;;;;;;;;;;-0.26;70.36;98896.22;7388885;19;19942;-73
2023/03/01 06:28:41;;;;;;;;;;;;;;;-0.36;70.93;98902.78;7396757;19;20357;-73
2023/03/01 06:31:09;;;;;;;;;;;;;;;-0.33;70.87;98889.63;7393415;19;19998;-74
2023/03/01 06:33:35;;;;;;;;;;;;;;;-0.35;71.24;98899.25;7393449;19;19914;-74
2023/03/01 06:36:02;;;;;;;;;;;;;;;-0.30;71.18;98897.25;7394399;19;19926;-74
2023/03/01 06:38:29;;;;;;;;;;;;;;;-0.26;70.97;98901.41;7392604;19;21398;-74
2023/03/01 06:40:56;;;;;;;;;;;;;;;-0.25;71.03;98903.09;7396114;19;19986;-74
2023/03/01 06:43:23;;;;;;;;;;;;;;;-0.15;71.20;98904.31;7392992;19;19938;-73
2023/03/01 06:45:50;;;;;;;;;;;;;;;-0.08;70.87;98905.72;7397873;19;20347;-74
2023/03/01 06:48:17;;;;;;;;;;;;;;;-0.07;70.83;98903.94;7393825;19;19914;-74
2023/03/01 06:50:44;;;;;;;;;;;;;;;0.00;70.42;98900.13;7396389;19;19915;-74
2023/03/01 06:53:10;;;;;;;;;;;;;;;-0.03;70.17;98905.47;7391781;19;19919;-74
2023/03/01 06:55:37;;;;;;;;;;;;;;;0.02;70.21;98908.66;7397292;19;19933;-73
2023/03/01 06:58:03;;;;;;;;;;;;;;;-0.05;70.16;98904.72;7395780;19;19926;-74
2023/03/01 07:00:30;;;;;;;;;;;;;;;-0.03;69.92;98905.47;7396541;19;21045;-74
2023/03/01 07:03:01;;;;;;;;;;;;;;;0.02;70.18;98900.03;7395591;19;19914;-73
2023/03/01 07:05:28;;;;;;;;;;;;;;;0.03;70.06;98905.19;7394300;19;19942;-74
2023/03/01 07:07:56;;;;;;;;;;;;;;;0.03;69.61;98904.31;7397289;19;19933;-73
2023/03/01 07:10:22;;;;;;;;;;;;;;;0.07;69.60;98898.88;7395355;19;19922;-73
2023/03/01 07:12:49;;;;;;;;;;;;;;;0.08;69.02;98905.78;7394129;19;19923;-72
2023/03/01 07:15:16;;;;;;;;;;;;;;;0.07;69.22;98898.03;7394572;19;19925;-72
2023/03/01 07:17:44;;;;;;;;;;;;;;;0.13;69.26;98898.59;7393651;19;19933;-72
2023/03/01 07:20:11;;;;;;;;;;;;;;;0.14;69.15;98891.63;7391945;19;19954;-72
2023/03/01 07:22:39;;;;;;;;;;;;;;;0.01;69.42;98903.56;7393283;19;20339;-73
2023/03/01 07:25:05;;;;;;;;;;;;;;;0.11;69.10;98897.00;7395496;19;19917;-72
2023/03/01 07:27:32;;;;;;;;;;;;;;;0.24;69.42;98899.78;7392933;19;19940;-72
2023/03/01 07:29:59;;;;;;;;;;;;;;;0.29;69.31;98897.78;7394350;19;19914;-73
2023/03/01 07:32:25;;;;;;;;;;;;;;;0.37;69.13;98895.63;7393109;19;19924;-73
2023/03/01 07:34:52;;;;;;;;;;;;;;;0.38;68.88;98889.53;7397675;19;19928;-74
2023/03/01 07:37:18;;;;;;;;;;;;;;;0.43;68.67;98879.72;7391963;19;19937;-73
2023/03/01 07:39:45;;;;;;;;;;;;;;;0.51;68.45;98881.94;7394992;19;20458;-73
2023/03/01 07:42:12;;;;;;;;;;;;;;;0.49;68.79;98875.94;7392708;19;20554;-73
2023/03/01 07:44:38;;;;;;;;;;;;;;;0.71;68.70;98883.47;7393666;19;19914;-72
2023/03/01 07:47:05;;;;;;;;;;;;;;;0.75;68.23;98885.00;7394620;19;19922;-73
2023/03/01 07:49:31;;;;;;;;;;;;;;;0.60;67.50;98881.44;7392391;19;21234;-73
2023/03/01 07:51:58;;;;;;;;;;;;;;;0.77;67.84;98883.16;7395146;19;19923;-73
2023/03/01 07:54:26;;;;;;;;;;;;;;;0.78;67.22;98875.25;7391722;19;19929;-73
2023/03/01 07:56:54;;;;;;;;;;;;;;;0.89;67.42;98872.06;7391244;19;19978;-73
2023/03/01 07:59:21;;;;;;;;;;;;;;;1.05;67.77;98867.72;7390993;19;19926;-72
2023/03/01 08:01:47;;;;;;;;;;;;;;;0.94;66.80;98870.06;7388402;19;19919;-73
2023/03/01 08:04:14;;;;;;;;;;;;;;;1.06;66.92;98863.34;7387152;19;19922;-72
2023/03/01 08:06:41;;;;;;;;;;;;;;;1.08;66.03;98862.34;7396017;19;19918;-72
2023/03/01 08:09:08;;;;;;;;;;;;;;;1.24;66.93;98862.34;7393191;19;19921;-72
2023/03/01 08:11:35;;;;;;;;;;;;;;;1.40;67.48;98854.50;7391531;19;19914;-73
2023/03/01 08:14:02;;;;;;;;;;;;;;;1.51;66.02;98853.88;7390872;19;19910;-73
2023/03/01 08:16:28;;;;;;;;;;;;;;;1.49;64.81;98856.56;7391876;19;20781;-73
2023/03/01 08:18:59;;;;;;;;;;;;;;;1.65;65.18;98853.09;7393495;19;19919;-72
2023/03/01 08:21:25;;;;;;;;;;;;;;;1.83;64.74;98859.03;7390124;19;19931;-72
2023/03/01 08:23:52;;;;;;;;;;;;;;;1.87;64.14;98861.38;7393454;19;19922;-73
2023/03/01 08:26:19;;;;;;;;;;;;;;;2.01;64.20;98865.78;7388477;19;19950;-73
2023/03/01 08:28:46;;;;;;;;;;;;;;;2.19;64.00;98859.47;7392353;19;19915;-72
2023/03/01 08:31:14;;;;;;;;;;;;;;;2.27;62.66;98856.41;7388179;19;20259;-73
2023/03/01 08:33:41;;;;;;;;;;;;;;;2.41;63.18;98855.56;7391377;19;19918;-73
2023/03/01 08:36:07;;;;;;;;;;;;;;;2.26;60.92;98852.09;7390544;19;19919;-73
2023/03/01 08:38:34;;;;;;;;;;;;;;;2.50;61.38;98852.41;7391847;19;20302;-73
2023/03/01 08:41:02;;;;;;;;;;;;;;;2.73;60.59;98852.78;7392732;19;19918;-73
2023/03/01 08:43:28;;;;;;;;;;;;;;;3.10;60.78;98853.09;7389137;19;19918;-72
2023/03/01 08:45:55;;;;;;;;;;;;;;;3.32;59.04;98847.31;7390969;19;19922;-73
2023/03/01 08:48:22;;;;;;;;;;;;;;;3.60;58.15;98835.91;7391475;19;19918;-73
2023/03/01 08:50:48;;;;;;;;;;;;;;;3.83;58.26;98844.88;7394145;19;19922;-73
2023/03/01 08:53:15;;;;;;;;;;;;;;;3.81;57.77;98837.13;7386159;19;19921;-72
2023/03/01 08:55:41;;;;;;;;;;;;;;;3.88;58.16;98841.00;7395190;19;20296;-73
2023/03/01 08:58:08;;;;;;;;;;;;;;;4.05;56.61;98833.81;7391481;19;19914;-73
2023/03/01 09:00:34;;;;;;;;;;;;;;;4.10;55.32;98829.09;7385548;19;19950;-73
2023/03/01 09:03:01;;;;;;;;;;;;;;;4.19;55.64;98828.47;7388943;19;19929;-72
2023/03/01 09:05:28;;;;;;;;;;;;;;;4.40;54.60;98821.78;7391870;19;19915;-72
2023/03/01 09:07:54;;;;;;;;;;;;;;;4.63;55.14;98819.31;7393007;19;19930;-73
2023/03/01 09:10:21;;;;;;;;;;;;;;;4.89;54.39;98816.66;7386684;19;19914;-74
2023/03/01 09:12:47;;;;;;;;;;;;;;;4.99;54.45;98822.91;7392373;19;20005;-73
2023/03/01 09:15:14;;;;;;;;;;;;;;;4.83;53.51;98813.53;7393006;19;19997;-72
2023/03/01 09:17:41;;;;;;;;;;;;;;;4.89;53.92;98806.16;7389863;19;19918;-73
2023/03/01 09:20:08;;;;;;;;;;;;;;;4.88;54.42;98799.25;7391676;19;19957;-73
2023/03/01 09:22:34;;;;;;;;;;;;;;;4.91;54.29;98796.41;7385302;19;19929;-73
2023/03/01 09:25:01;;;;;;;;;;;;;;;4.82;55.01;98795.28;7392513;19;20283;-72
2023/03/01 09:27:28;;;;;;;;;;;;;;;4.69;54.76;98795.31;7387816;19;20315;-73
2023/03/01 09:29:56;;;;;;;;;;;;;;;4.60;53.89;98782.84;7392534;19;20603;-73
2023/03/01 09:32:22;;;;;;;;;;;;;;;4.65;54.54;98793.03;7389995;19;19927;-72
2023/03/01 09:35:03;;;;;;;;;;;;;;;4.96;54.80;98787.28;7393972;19;19921;-72
2023/03/01 09:37:31;;;;;;;;;;;;;;;4.95;54.02;98782.97;7392332;19;20141;-72
2023/03/01 09:39:57;;;;;;;;;;;;;;;5.05;54.74;98786.63;7399339;19;19911;-73
2023/03/01 09:42:24;;;;;;;;;;;;;;;4.98;53.73;98779.31;7392992;19;19922;-72
2023/03/01 09:45:05;;;;;;;;;;;;;;;4.98;53.80;98781.94;7398163;19;19919;-72
2023/03/01 09:47:35;;;;;;;;;;;;;;;5.09;53.84;98781.16;7396015;19;19926;-73
2023/03/01 09:50:11;;;;;;;;;;;;;;;5.16;53.09;98783.22;7399173;19;19922;-72
2023/03/01 09:52:40;;;;;;;;;;;;;;;5.30;53.06;98782.22;7391632;19;19934;-72
2023/03/01 09:55:08;;;;;;;;;;;;;;;5.41;52.65;98774.38;7398355;19;19930;-73
2023/03/01 09:57:54;;;;;;;;;;;;;;;5.55;51.85;98762.84;7390576;19;19922;-73
2023/03/01 10:00:42;;;;;;;;;;;;;;;5.86;52.70;98768.44;7392581;19;19925;-73
2023/03/01 10:03:09;;;;;;;;;;;;;;;6.01;51.17;98764.66;7394851;19;19954;-72
2023/03/01 10:05:54;;;;;;;;;;;;;;;6.49;50.35;98742.59;7395847;19;19925;-72
2023/03/01 10:08:35;;;;;;;;;;;;;;;6.79;49.83;98758.56;7393802;19;19918;-73
2023/03/01 10:11:03;;;;;;;;;;;;;;;6.95;48.55;98746.81;7397271;19;19935;-73
2023/03/01 10:13:37;;;;;;;;;;;;;;;7.00;49.44;98742.88;7395447;19;20267;-73
2023/03/01 10:16:12;;;;;;;;;;;;;;;7.01;47.48;98739.25;7394978;19;19914;-73
2023/03/01 10:18:38;;;;;;;;;;;;;;;7.22;48.49;98741.13;7393159;19;19935;-73
2023/03/01 10:21:11;;;;;;;;;;;;;;;7.26;47.68;98745.16;7398305;19;19918;-73
2023/03/01 10:23:38;;;;;;;;;;;;;;;7.44;47.27;98734.91;7393979;19;20318;-73
2023/03/01 10:26:25;;;;;;;;;;;;;;;7.33;47.27;98735.81;7396968;19;19929;-73
2023/03/01 10:29:03;;;;;;;;;;;;;;;7.16;47.02;98728.44;7398835;19;20265;-73
2023/03/01 10:31:46;;;;;;;;;;;;;;;7.15;47.42;98724.16;7391429;19;20351;-73
2023/03/01 10:34:18;;;;;;;;;;;;;;;7.16;48.41;98710.03;7392279;19;19919;-74
2023/03/01 10:36:47;;;;;;;;;;;;;;;7.35;48.98;98712.81;7397486;19;19926;-74
2023/03/01 10:39:15;;;;;;;;;;;;;;;7.79;46.96;98712.69;7392873;19;19936;-73
2023/03/01 10:41:56;;;;;;;;;;;;;;;8.12;44.81;98703.72;7395258;19;19938;-73
2023/03/01 10:44:36;;;;;;;;;;;;;;;8.43;45.38;98701.09;7394425;19;19936;-73
2023/03/01 10:47:03;;;;;;;;;;;;;;;8.67;43.92;98706.84;7395978;19;19949;-73
2023/03/01 10:49:30;;;;;;;;;;;;;;;8.71;43.72;98705.59;7392504;19;19918;-72
2023/03/01 10:51:57;;;;;;;;;;;;;;;8.54;43.49;98704.44;7395065;19;20380;-73
2023/03/01 10:54:31;;;;;;;;;;;;;;;8.30;44.06;98702.13;7390122;19;19915;-72
2023/03/01 10:56:59;;;;;;;;;;;;;;;8.20;45.62;98698.63;7398735;19;19919;-73
2023/03/01 10:59:32;;;;;;;;;;;;;;;8.02;45.01;98692.28;7390717;19;19923;-73
2023/03/01 11:02:15;;;;;;;;;;;;;;;7.73;46.09;98698.25;7394242;19;19926;-72
2023/03/01 11:04:57;;;;;;;;;;;;;;;7.49;46.48;98677.44;7396035;19;19914;-72
2023/03/01 11:07:24;;;;;;;;;;;;;;;7.67;47.19;98680.34;7390113;19;19921;-73
2023/03/01 11:09:51;;;;;;;;;;;;;;;7.83;46.63;98674.59;7396963;19;19918;-73
2023/03/01 11:12:18;;;;;;;;;;;;;;;7.89;46.23;98669.63;7394484;19;20327;-73
2023/03/01 11:14:48;;;;;;;;;;;;;;;8.00;44.88;98665.25;7393587;19;19919;-72
2023/03/01 11:17:17;;;;;;;;;;;;;;;8.31;45.50;98658.97;7392812;19;19921;-73
2023/03/01 11:19:45;;;;;;;;;;;;;;;8.55;44.43;98663.91;7392586;19;19922;-73
2023/03/01 11:22:27;;;;;;;;;;;;;;;8.83;44.27;98653.56;7388048;19;19915;-73
2023/03/01 11:24:54;;;;;;;;;;;;;;;8.64;43.37;98651.72;7393792;19;19926;-72
2023/03/01 11:27:36;;;;;;;;;;;;;;;9.09;43.15;98653.00;7390825;19;19918;-72
2023/03/01 11:30:07;;;;;;;;;;;;;;;9.40;43.75;98653.66;7393895;19;19930;-73
2023/03/01 11:32:35;;;;;;;;;;;;;;;9.66;42.25;98644.19;7387363;19;19914;-73
2023/03/01 11:35:10;;;;;;;;;;;;;;;9.68;43.09;98630.81;7392759;19;19922;-72
2023/03/01 11:37:38;;;;;;;;;;;;;;;9.62;42.59;98636.69;7388611;19;20224;-73
2023/03/01 11:40:24;;;;;;;;;;;;;;;9.59;42.58;98629.88;7392154;19;19946;-73
2023/03/01 11:43:11;;;;;;;;;;;;;;;9.79;41.58;98619.22;7392237;19;19930;-73
2023/03/01 11:45:51;;;;;;;;;;;;;;;10.06;41.74;98618.44;7390369;19;19923;-73
2023/03/01 11:48:25;;;;;;;;;;;;;;;10.36;40.53;98608.56;7391285;19;19919;-73
2023/03/01 11:50:51;;;;;;;;;;;;;;;10.40;39.89;98604.63;7389017;19;19906;-73
2023/03/01 11:53:37;;;;;;;;;;;;;;;10.43;41.49;98607.00;7387556;19;19926;-73
2023/03/01 11:56:06;;;;;;;;;;;;;;;10.19;40.58;98597.78;7389146;19;19921;-73
2023/03/01 11:58:39;;;;;;;;;;;;;;;9.88;41.25;98587.50;7387118;19;19922;-73
2023/03/01 12:01:06;;;;;;;;;;;;;;;9.82;40.89;98590.72;7390429;19;19910;-73
2023/03/01 12:03:33;;;;;;;;;;;;;;;9.74;42.50;98582.69;7390497;19;19949;-73
2023/03/01 12:06:08;;;;;;;;;;;;;;;9.67;41.77;98582.44;7392288;19;19918;-73
2023/03/01 12:08:35;;;;;;;;;;;;;;;9.40;42.32;98569.16;7389557;19;19926;-73
2023/03/01 12:11:04;;;;;;;;;;;;;;;9.58;43.24;98578.00;7394003;19;19941;-73
2023/03/01 12:13:50;;;;;;;;;;;;;;;10.03;42.11;98572.00;7387918;19;19914;-73
2023/03/01 12:16:19;;;;;;;;;;;;;;;10.29;40.83;98561.56;7393432;19;20228;-73
2023/03/01 12:19:07;;;;;;;;;;;;;;;10.01;41.32;98550.16;7392867;19;19914;-73
2023/03/01 12:21:50;;;;;;;;;;;;;;;9.80;41.83;98544.28;7387934;19;19918;-72
2023/03/01 12:24:49;;;;;;;;;;;;;;;9.56;42.83;98552.72;7388498;19;19918;-73
2023/03/01 12:27:19;;;;;;;;;;;;;;;9.31;41.46;98543.63;7386248;19;20677;-73
2023/03/01 12:29:58;;;;;;;;;;;;;;;8.97;42.51;98537.03;7388303;19;19914;-73
2023/03/01 12:33:00;;;;;;;;;;;;;;;9.06;44.11;98537.16;7389140;19;19937;-73
2023/03/01 12:35:27;;;;;;;;;;;;;;;9.05;43.05;98536.31;7387717;19;19926;-74
2023/03/01 12:38:08;;;;;;;;;;;;;;;8.92;43.26;98538.44;7386957;19;20341;-72
2023/03/01 12:40:54;;;;;;;;;;;;;;;9.00;44.20;98530.63;7385744;19;19918;-73
2023/03/01 12:43:20;;;;;;;;;;;;;;;9.21;44.53;98514.59;7387800;19;22352;-73
2023/03/01 12:45:56;;;;;;;;;;;;;;;9.18;43.35;98512.25;7386738;19;19918;-72
2023/03/01 12:48:26;;;;;;;;;;;;;;;9.16;42.98;98504.50;7389104;19;19919;-72
2023/03/01 12:50:54;;;;;;;;;;;;;;;9.21;44.58;98502.25;7391272;19;19924;-72
2023/03/01 12:53:25;;;;;;;;;;;;;;;9.09;43.26;98490.22;7385066;19;19926;-73
2023/03/01 12:55:52;;;;;;;;;;;;;;;9.13;44.70;98488.09;7386157;19;19950;-74
2023/03/01 12:58:38;;;;;;;;;;;;;;;9.08;44.17;98491.16;7385880;19;19925;-73
2023/03/01 13:01:33;;;;;;;;;;;;;;;9.00;43.22;98485.78;7389629;19;19926;-72
2023/03/01 13:04:14;;;;;;;;;;;;;;;8.60;43.05;98488.63;7389926;19;19923;-72
2023/03/01 13:06:44;;;;;;;;;;;;;;;8.51;44.52;98480.59;7389157;19;19990;-72
2023/03/01 13:09:17;;;;;;;;;;;;;;;8.62;44.84;98484.88;7388919;19;19985;-72